Latest Coastal Weather Observations for Cape Grim

IDV60701

Issued at 4:51 pm EDT Wednesday 18 January 2017 (issued every 10 minutes, with the page automatically refreshed every 10 minutes)

About coastal observations | Map of coastal stations | Coastal observations for VIC | Marine services | Other Formats
Station Details ID: 091331 Name: CAPE GRIM Lat: -40.68 Lon: 144.69 Height: 86.0 m
Data from the previous 72 hours. | See also: Recent months at Cape Grim
Date/Time
EDT
Temp
°C
Wind Pressure Rain since
9am
mm
Weather Cloud Vis
km
Sea
Height
m
Swell
Dir  Spd
kts
Gust
kts
hPa Trend Height
m
Period
s
Dir
18/04:30pm 15.4 SSW 21 28 1015.4 - 0.0 - - - - - - -
18/04:05pm 15.3 SSW 20 30 1015.3 - 0.0 - Partly cloudy - - - - -
18/04:00pm 15.4 SSW 21 30 1015.3 - 0.0 - Partly cloudy - - - - -
18/03:32pm 15.4 SSW 22 32 1015.2 - 0.0 - Partly cloudy - - - - -
18/03:30pm 15.5 SSW 22 31 1015.2 - 0.0 - Partly cloudy - - - - -
18/03:00pm 15.4 SSW 22 33 1015.1 - 0.0 - Mostly clear - - - - -
18/02:30pm 15.5 SSW 21 33 1014.9 - 0.0 - Partly cloudy - - - - -
18/02:02pm 15.3 SW 22 32 1014.7 - 0.0 - Partly cloudy - - - - -
18/02:00pm 15.5 SW 23 32 1014.7 - 0.0 - Partly cloudy - - - - -
18/01:30pm 15.3 SSW 23 35 1014.5 - 0.0 - Partly cloudy - - - - -
18/01:02pm 15.3 SW 23 33 1014.2 - 0.0 - Partly cloudy - - - - -
18/01:00pm 15.0 SW 24 33 1014.2 - 0.0 - Partly cloudy - - - - -
18/12:30pm 15.1 SW 25 35 1013.9 - 0.0 - Partly cloudy - - - - -
18/12:00pm 15.3 SW 25 36 1013.5 - 0.0 - Mostly cloudy - - - - -
18/11:30am 14.7 SW 26 37 1013.2 - 0.0 - Partly cloudy - - - - -
18/11:11am 14.8 SW 27 37 1013.0 - 0.0 - Partly cloudy - - - - -
18/11:00am 14.5 SW 29 38 1012.8 - 0.0 - Partly cloudy - - - - -
18/10:32am 14.5 SW 26 36 1012.4 - 0.0 - Partly cloudy - - - - -
18/10:30am 14.2 SW 27 36 1012.4 - 0.0 - Partly cloudy - - - - -
18/10:00am 13.7 SW 31 38 1012.1 - 0.0 - Partly cloudy - - - - -
18/09:39am 14.4 SW 29 39 1011.7 - 0.0 - Partly cloudy - - - - -
18/09:30am 14.2 SW 30 39 1011.6 - 0.0 - Partly cloudy - - - - -
18/09:26am 14.2 SW 29 39 1011.5 - 0.0 - Partly cloudy - - - - -
18/09:00am 13.8 SW 30 37 1011.1 - 1.2 - Mostly cloudy - - - - -
18/08:30am 13.9 SW 31 40 1010.6 - 1.2 - Partly cloudy - - - - -
18/08:00am 14.0 SW 31 39 1010.4 - 1.2 - - - - - - -
18/07:30am 13.3 SW 34 44 1010.0 - 1.2 - Partly cloudy - - - - -
18/07:21am 13.1 SW 32 44 1009.9 - 1.2 - Partly cloudy - - - - -
18/07:00am 13.4 SW 31 38 1009.8 - 1.2 - - - - - - -
18/06:30am 13.7 SW 32 40 1009.2 - 1.2 - Partly cloudy - - - - -
18/06:00am 14.1 SW 31 38 1008.3 - 1.2 - Mostly cloudy - - - - -
18/05:30am 14.1 SW 27 37 1007.6 - 1.2 - Partly cloudy - - - - -
18/05:00am 14.3 SW 23 33 1007.3 - 1.2 - Partly cloudy - - - - -
18/04:32am 14.3 SW 22 32 1007.1 - 1.2 - Partly cloudy - - - - -
18/04:30am 14.4 SW 21 30 1007.1 - 1.2 - Partly cloudy - - - - -
18/04:00am 14.2 WSW 21 32 1007.3 - 1.2 - Partly cloudy - - - - -
18/03:33am 14.2 SW 19 29 1007.4 - 1.2 - Partly cloudy - - - - -
18/03:30am 14.1 SW 20 29 1007.4 - 1.2 - Partly cloudy - - - - -
18/03:00am 14.3 SW 22 32 1007.2 - 1.2 - Mostly cloudy - - - - -
18/02:30am 14.2 SW 22 35 1007.3 - 1.2 - Partly cloudy - - - - -
18/02:00am 14.3 SW 23 34 1007.5 - 1.2 - Partly cloudy - - - - -
18/01:30am 14.5 SW 21 33 1007.4 - 1.2 - Partly cloudy - - - - -
18/01:01am 14.2 SW 23 33 1007.2 - 1.2 - Partly cloudy - - - - -
18/01:00am 14.3 SW 24 33 1007.2 - 1.2 - Partly cloudy - - - - -
18/12:30am 14.6 SW 22 33 1007.3 - 1.2 - Partly cloudy - - - - -
18/12:00am 14.9 WSW 17 34 1007.7 - 1.2 - Cloudy - - - - -
 
Date/Time
EDT
Temp
°C
Wind Pressure Rain since
9am
mm
Weather Cloud Vis
km
Sea
Height
m
Swell
Dir  Spd
kts
Gust
kts
hPa Trend Height
m
Period
s
Dir
17/11:52pm 15.4 W 15 25 1007.6 - 1.2 - Partly cloudy - - - - -
17/11:30pm 15.3 W 13 23 1007.4 - 1.2 - Partly cloudy - - - - -
17/11:00pm 14.9 W 13 22 1007.0 - 1.2 - Partly cloudy - - - - -
17/10:37pm 15.3 WSW 15 25 1007.9 - 1.2 - Partly cloudy - - - - -
17/10:30pm 15.1 WSW 13 21 1007.5 - 1.2 - Partly cloudy - - - - -
17/10:23pm 15.1 W 12 19 1007.4 - 1.2 - Partly cloudy - - - - -
17/10:00pm 15.3 WSW 11 20 1007.4 - 1.0 - Partly cloudy - - - - -
17/09:54pm 15.4 W 12 17 1007.3 - 1.0 - Partly cloudy - - - - -
17/09:45pm 15.4 WSW 9 17 1007.2 - 0.8 - Partly cloudy - - - - -
17/09:30pm 15.4 W 10 17 1006.6 - 0.6 - Partly cloudy - - - - -
17/09:00pm 15.6 WSW 10 21 1007.2 - 0.0 - Cloudy - - - - -
17/08:30pm 15.5 WSW 8 15 1006.4 - 0.0 - Partly cloudy - - - - -
17/08:02pm 15.7 WSW 11 23 1006.9 - 0.0 - Partly cloudy - - - - -
17/08:00pm 15.6 SW 12 23 1007.0 - 0.0 - Partly cloudy - - - - -
17/07:57pm 15.8 WSW 11 23 1007.0 - 0.0 - Partly cloudy - - - - -
17/07:30pm 15.6 WSW 11 20 1006.3 - 0.0 - Partly cloudy - - - - -
17/07:10pm 15.9 WSW 9 17 1006.0 - 0.0 - Partly cloudy - - - - -
17/07:00pm 16.1 WSW 8 13 1005.9 - 0.0 - Partly cloudy - - - - -
17/06:55pm 16.1 W 8 11 1005.8 - 0.0 - Partly cloudy - - - - -
17/06:30pm 16.1 W 7 14 1006.0 - 0.0 - Partly cloudy - - - - -
17/06:22pm 16.2 WSW 7 14 1005.9 - 0.0 - Partly cloudy - - - - -
17/06:00pm 16.2 WSW 6 10 1005.1 - 0.0 - Cloudy - - - - -
17/05:30pm 16.4 W 5 8 1005.1 - 0.0 - Partly cloudy - - - - -
17/05:00pm 16.7 WSW 6 9 1005.7 - 0.0 - - - - - - -
17/04:30pm 17.1 W 7 9 1005.9 - 0.0 - Partly cloudy - - - - -
17/04:00pm 17.0 W 6 9 1005.9 - 0.0 - Partly cloudy - - - - -
17/03:30pm 17.6 WSW 7 10 1005.6 - 0.0 - - - - - - -
17/03:00pm 18.2 WSW 7 10 1005.7 - 0.0 - Cloudy - - - - -
17/02:30pm 19.2 WSW 7 9 1006.2 - 0.0 - - - - - - -
17/02:00pm 19.3 W 7 8 1006.2 - 0.0 - - - - - - -
17/01:30pm 19.3 NW 8 9 1006.4 - 0.0 - - - - - - -
17/01:00pm 19.6 WNW 8 10 1006.7 - 0.0 - - - - - - -
17/12:30pm 18.7 WNW 9 11 1007.1 - 0.0 - - - - - - -
17/12:00pm 18.8 WNW 8 11 1007.2 - 0.0 - Mostly cloudy - - - - -
17/11:30am 18.8 WNW 7 9 1007.0 - 0.0 - - - - - - -
17/11:00am 19.1 WNW 6 8 1006.8 - 0.0 - - - - - - -
17/10:30am 18.6 WNW 7 10 1007.2 - 0.0 - - - - - - -
17/10:00am 19.7 NW 8 10 1007.5 - 0.0 - - - - - - -
17/09:30am 18.4 NNW 9 10 1007.4 - 0.0 - - - - - - -
17/09:00am 17.5 N 5 7 1007.1 - 0.0 - - - - - - -
17/08:30am 17.2 N 6 9 1006.9 - 0.0 - - - - - - -
17/08:00am 16.2 NNW 2 4 1007.3 - 0.0 - - - - - - -
17/07:30am 15.9 N 5 7 1006.8 - 0.0 - - - - - - -
17/07:00am 15.4 N 4 6 1007.0 - 0.0 - - - - - - -
17/06:30am 15.5 N 5 6 1006.8 - 0.0 - - - - - - -
17/06:00am 15.5 NNW 6 8 1006.7 - 0.0 - Cloudy - - - - -
17/05:30am 15.4 NNW 5 7 1006.4 - 0.0 - - - - - - -
17/05:00am 15.3 NNW 6 9 1006.7 - 0.0 - - - - - - -
17/04:30am 15.4 NNW 8 9 1006.5 - 0.0 - - - - - - -
17/04:00am 15.2 N 9 11 1006.5 - 0.0 - - - - - - -
17/03:30am 14.4 NNE 8 8 1006.8 - 0.0 - Partly cloudy - - - - -
17/03:14am 14.3 N 7 8 1007.1 - 0.0 - Partly cloudy - - - - -
17/03:00am 13.8 NNE 6 7 1007.1 - 0.0 - Partly cloudy - - - - -
17/02:30am 13.4 ENE 6 7 1007.2 - 0.0 - Cloudy - - - - -
17/02:02am 13.5 ENE 7 9 1007.6 - 0.0 - Partly cloudy - - - - -
17/02:00am 13.6 ENE 7 9 1007.6 - 0.0 - Partly cloudy - - - - -
17/01:30am 12.7 E 7 9 1007.9 - 0.0 - - - - - - -
17/01:00am 13.2 ENE 7 8 1008.3 - 0.0 - - - - - - -
17/12:30am 13.7 E 5 7 1008.3 - 0.0 - - - - - - -
17/12:00am 14.0 ESE 6 7 1008.3 - 0.0 - Cloudy - - - - -
 
Date/Time
EDT
Temp
°C
Wind Pressure Rain since
9am
mm
Weather Cloud Vis
km
Sea
Height
m
Swell
Dir  Spd
kts
Gust
kts
hPa Trend Height
m
Period
s
Dir
16/11:30pm 14.0 ENE 4 5 1009.0 - 0.0 - - - - - - -
16/11:00pm 13.9 N 4 5 1009.4 - 0.0 - - - - - - -
16/10:30pm 14.2 N 4 4 1009.8 - 0.0 - - - - - - -
16/10:00pm 14.4 N 3 5 1010.1 - 0.0 - - - - - - -
16/09:30pm 14.6 N 1 4 1010.5 - 0.0 - - - - - - -
16/09:00pm 14.5 N 5 6 1010.1 - 0.0 - Mostly cloudy - - - - -
16/08:30pm 14.8 NNW 5 6 1010.1 - 0.0 - - - - - - -
16/08:00pm 15.1 NNW 4 5 1010.2 - 0.0 - - - - - - -
16/07:30pm 15.7 NNW 5 7 1010.2 - 0.0 - - - - - - -
16/07:00pm 17.1 W 5 7 1010.5 - 0.0 - - - - - - -
16/06:30pm 17.3 WNW 8 10 1010.5 - 0.0 - - - - - - -
16/06:00pm 18.1 W 8 10 1010.9 - 0.0 - Mostly clear - - - - -
16/05:30pm 17.6 W 8 11 1011.2 - 0.0 - - - - - - -
16/05:00pm 18.2 WNW 8 10 1011.3 - 0.0 - - - - - - -
16/04:30pm 18.3 WNW 8 9 1011.6 - 0.0 - - - - - - -
16/04:00pm 18.5 WNW 9 11 1011.8 - 0.0 - - - - - - -
16/03:30pm 18.2 WNW 10 12 1012.1 - 0.0 - - - - - - -
16/03:00pm 18.6 WNW 11 14 1012.4 - 0.0 - - - - - - -
16/02:30pm 18.6 W 12 15 1012.8 - 0.0 - - - - - - -
16/02:00pm 18.7 WNW 11 15 1012.9 - 0.0 - Partly cloudy - - - - -
16/01:30pm 18.2 WNW 12 15 1013.2 - 0.0 - Cloudy - - - - -
16/01:00pm 18.0 WNW 12 16 1013.6 - 0.0 - Cloudy - - - - -
16/12:30pm 17.6 WNW 14 17 1013.9 - 0.0 - Cloudy - - - - -
16/12:00pm 17.2 WNW 13 18 1014.0 - 0.0 - Cloudy - - - - -
16/11:30am 16.8 WNW 10 13 1014.3 - 0.0 - Cloudy - - - - -
16/11:00am 15.9 W 13 16 1014.3 - 0.0 - Cloudy - - - - -
16/10:30am 15.5 WNW 12 16 1014.6 - 0.0 - Cloudy - - - - -
16/10:00am 15.2 WNW 9 14 1014.8 - 0.0 - Cloudy - - - - -
16/09:30am 14.7 W 11 15 1014.7 - 0.0 - Partly cloudy - - - - -
16/09:00am 14.2 W 13 19 1015.0 - 0.4 - Cloudy - - - - -
16/08:30am 14.3 WNW 10 15 1014.8 - 0.4 - Cloudy - - - - -
16/08:00am 14.3 W 9 12 1014.7 - 0.4 - Cloudy - - - - -
16/07:30am 14.0 WNW 11 14 1014.5 - 0.4 - Cloudy - - - - -
16/07:00am 14.3 W 8 11 1014.3 - 0.4 - Cloudy - - - - -
16/06:30am 13.9 W 9 15 1014.0 - 0.4 - Partly cloudy - - - - -
16/06:00am 13.9 W 7 12 1013.9 - 0.4 - Cloudy - - - - -
16/05:30am 13.3 SW 11 17 1013.9 - 0.4 - Partly cloudy - - - - -
16/05:00am 13.9 W 8 12 1013.6 - 0.4 - Partly cloudy - - - - -
16/04:30am 13.8 W 9 14 1013.4 - 0.4 - Partly cloudy - - - - -
16/04:00am 13.9 WSW 8 13 1013.5 - 0.4 - Cloudy - - - - -
16/03:30am 13.6 SW 10 16 1013.6 - 0.4 - Partly cloudy - - - - -
16/03:00am 13.5 W 10 14 1013.8 - 0.4 Recent precip. Cloudy - - - - -
16/02:30am 13.3 W 8 11 1014.0 - 0.4 - Partly cloudy - - - - -
16/02:00am 13.1 W 13 20 1014.5 - 0.2 - Partly cloudy - - - - -
16/01:55am 12.9 W 13 21 1014.5 - 0.2 - Partly cloudy - - - - -
16/01:42am 12.7 W 12 20 1014.6 - 0.2 - Partly cloudy - - - - -
16/01:30am 13.8 W 9 13 1014.7 - 0.0 - Partly cloudy - - - - -
16/01:00am 13.4 W 9 14 1015.0 - 0.0 - Partly cloudy - - - - -
16/12:30am 13.5 WSW 10 18 1015.3 - 0.0 - Partly cloudy - - - - -
16/12:00am 12.8 SW 12 20 1015.6 - 0.0 - Cloudy - - - - -
 
Date/Time
EDT
Temp
°C
Wind Pressure Rain since
9am
mm
Weather Cloud Vis
km
Sea
Height
m
Swell
Dir  Spd
kts
Gust
kts
hPa Trend Height
m
Period
s
Dir
15/11:39pm 13.0 WSW 12 21 1015.8 - 0.0 - Partly cloudy - - - - -
15/11:30pm 12.9 WSW 14 23 1015.8 - 0.0 - Partly cloudy - - - - -
15/11:21pm 13.5 W 13 23 1015.8 - 0.0 - Partly cloudy - - - - -
15/11:00pm 13.9 W 9 16 1016.0 - 0.0 - Partly cloudy - - - - -
15/10:30pm 14.3 WSW 10 16 1016.1 - 0.0 - Partly cloudy - - - - -
15/10:00pm 14.5 W 8 13 1016.1 - 0.0 - Cloudy - - - - -
15/09:30pm 14.6 WSW 12 21 1016.0 - 0.0 - Cloudy - - - - -
15/09:00pm 14.3 W 11 16 1016.1 - 0.0 - Mostly cloudy - - - - -
15/08:30pm 14.2 WSW 9 17 1016.0 - 0.0 - Cloudy - - - - -
15/08:00pm 14.2 WSW 9 16 1016.0 - 0.0 - Cloudy - - - - -
15/07:30pm 14.2 W 9 16 1015.8 - 0.0 - Cloudy - - - - -
15/07:00pm 14.3 W 11 18 1015.7 - 0.0 - Partly cloudy - - - - -
15/06:30pm 14.4 WSW 11 21 1015.9 - 0.0 - Partly cloudy - - - - -
15/06:00pm 14.8 W 13 21 1016.0 - 0.0 - Cloudy - - - - -
15/05:30pm 15.2 WSW 13 21 1016.2 - 0.0 - Partly cloudy - - - - -
15/05:00pm 15.0 W 11 20 1016.5 - 0.0 - Partly cloudy - - - - -

Other Formats:

Comma delimited format used in spreadsheet applications
http://www.bom.gov.au/fwo/IDV60701/IDV60701.95954.axf

JavaScript Object Notation format (JSON) in row-major order
http://www.bom.gov.au/fwo/IDV60701/IDV60701.95954.json